createdAt,value
2022-10-05T00:00:49.878Z,3.10
2022-10-05T00:03:16.558Z,2.90
2022-10-05T00:05:45.569Z,2.93
2022-10-05T00:08:21.135Z,2.87
2022-10-05T00:10:48.691Z,2.80
2022-10-05T00:13:26.119Z,2.63
2022-10-05T00:16:25.943Z,3.17
2022-10-05T00:18:53.786Z,2.90
2022-10-05T00:21:26.637Z,3.03
2022-10-05T00:23:57.416Z,3.40
2022-10-05T00:26:26.718Z,3.20
2022-10-05T00:28:54.487Z,3.00
2022-10-05T00:31:28.639Z,3.20
2022-10-05T00:33:56.076Z,3.03
2022-10-05T00:36:22.778Z,3.10
2022-10-05T00:38:49.458Z,3.37
2022-10-05T00:45:27.406Z,3.27
2022-10-05T00:48:53.209Z,3.10
2022-10-05T00:51:31.174Z,3.00
2022-10-05T00:59:45.806Z,2.90
2022-10-05T01:03:10.004Z,2.57
2022-10-05T01:06:31.943Z,2.93
2022-10-05T01:11:23.610Z,2.70
2022-10-05T01:16:59.383Z,3.40
2022-10-05T01:20:11.121Z,2.70
2022-10-05T01:24:45.071Z,2.33
2022-10-05T01:27:57.098Z,2.47
2022-10-05T01:30:23.884Z,3.37
2022-10-05T01:33:43.239Z,2.70
2022-10-05T01:39:12.028Z,3.00
2022-10-05T01:42:22.866Z,2.87
2022-10-05T01:46:56.055Z,2.63
2022-10-05T01:49:55.410Z,2.40
2022-10-05T01:54:01.337Z,2.57
2022-10-05T02:00:46.236Z,2.40
2022-10-05T02:03:20.037Z,2.60
2022-10-05T02:06:20.714Z,2.43
2022-10-05T02:09:02.807Z,2.67
2022-10-05T02:11:29.321Z,2.50
2022-10-05T02:14:06.685Z,2.27
2022-10-05T02:16:46.432Z,2.20
2022-10-05T02:19:52.189Z,2.67
2022-10-05T02:22:29.851Z,2.37
2022-10-05T02:25:02.549Z,2.60
2022-10-05T02:27:36.925Z,2.43
2022-10-05T02:30:09.601Z,2.43
2022-10-05T02:32:50.581Z,2.63
2022-10-05T02:35:19.992Z,2.53
2022-10-05T02:38:13.943Z,2.83
2022-10-05T02:41:25.285Z,2.43
2022-10-05T02:47:28.976Z,2.40
2022-10-05T02:50:23.688Z,2.50
2022-10-05T02:57:59.576Z,2.80
2022-10-05T03:00:32.785Z,2.30
2022-10-05T03:04:43.459Z,2.63
2022-10-05T03:07:40.914Z,2.70
2022-10-05T03:11:14.453Z,2.80
2022-10-05T03:17:08.546Z,3.47
2022-10-05T03:20:24.084Z,2.40
2022-10-05T03:23:00.017Z,2.00
2022-10-05T03:28:26.229Z,2.37
2022-10-05T03:31:50.712Z,2.73
2022-10-05T03:37:14.861Z,2.97
2022-10-05T03:40:53.387Z,2.50
2022-10-05T03:44:19.873Z,2.30
2022-10-05T03:50:12.074Z,2.37
2022-10-05T03:52:50.216Z,2.30
2022-10-05T03:56:06.614Z,2.20
2022-10-05T03:59:00.147Z,2.10
2022-10-05T04:01:44.688Z,2.23
2022-10-05T04:04:22.394Z,2.60
2022-10-05T04:06:51.696Z,2.47
2022-10-05T04:09:32.808Z,2.40
2022-10-05T04:12:41.196Z,2.43
2022-10-05T04:16:46.423Z,2.40
2022-10-05T04:19:45.260Z,2.17
2022-10-05T04:22:22.565Z,2.43
2022-10-05T04:25:24.220Z,2.73
2022-10-05T04:30:39.283Z,2.20
2022-10-05T04:33:11.862Z,2.20
2022-10-05T04:36:25.533Z,2.50
2022-10-05T04:42:12.160Z,2.13
2022-10-05T04:45:59.673Z,1.70
2022-10-05T04:50:33.733Z,2.40
2022-10-05T04:54:56.039Z,2.40
2022-10-05T04:58:23.257Z,2.60
2022-10-05T05:02:43.724Z,2.37
2022-10-05T05:07:49.262Z,3.13
2022-10-05T05:10:52.042Z,2.23
2022-10-05T05:15:36.711Z,2.53
2022-10-05T05:19:55.063Z,2.30
2022-10-05T05:25:19.908Z,2.50
2022-10-05T05:28:01.676Z,2.63
2022-10-05T05:31:04.569Z,2.50
2022-10-05T05:36:31.141Z,2.60
2022-10-05T05:42:00.131Z,2.80
2022-10-05T05:44:49.847Z,2.90
2022-10-05T05:47:45.644Z,3.00
2022-10-05T05:51:17.368Z,2.87
2022-10-05T05:53:49.755Z,3.10
2022-10-05T05:56:24.562Z,2.93
2022-10-05T05:59:14.201Z,2.63
2022-10-05T06:01:50.342Z,2.53
2022-10-05T06:04:35.039Z,2.57
2022-10-05T06:07:05.182Z,2.13
2022-10-05T06:10:00.692Z,2.30
2022-10-05T06:12:38.551Z,2.30
2022-10-05T06:15:35.062Z,2.53
2022-10-05T06:18:10.416Z,3.90
2022-10-05T06:21:13.135Z,7.87
2022-10-05T06:23:57.893Z,5.50
2022-10-05T06:28:15.959Z,5.53
2022-10-05T06:31:26.243Z,4.77
2022-10-05T06:34:30.777Z,3.47
2022-10-05T06:37:04.127Z,3.03
2022-10-05T06:41:16.318Z,3.83
2022-10-05T06:45:04.616Z,3.27
2022-10-05T06:49:28.685Z,3.47
2022-10-05T06:52:38.194Z,3.37
2022-10-05T06:58:45.172Z,3.10
2022-10-05T07:05:44.683Z,3.60
2022-10-05T07:11:41.713Z,3.80
2022-10-05T07:20:06.709Z,3.70
2022-10-05T07:23:31.018Z,3.23
2022-10-05T07:26:53.219Z,4.57
2022-10-05T07:30:18.218Z,4.27
2022-10-05T07:33:29.606Z,3.80
2022-10-05T07:36:36.777Z,3.80
2022-10-05T07:39:36.807Z,3.47
2022-10-05T07:42:55.749Z,3.70
2022-10-05T07:47:06.927Z,4.00
2022-10-05T07:52:39.027Z,3.60
2022-10-05T07:55:42.447Z,3.83
2022-10-05T07:58:36.545Z,4.60
2022-10-05T08:01:28.871Z,4.83
2022-10-05T08:04:13.780Z,4.60
2022-10-05T08:06:55.978Z,4.67
2022-10-05T08:09:42.056Z,5.43
2022-10-05T08:14:45.620Z,6.00
2022-10-05T08:17:56.300Z,4.70
2022-10-05T08:20:52.129Z,4.67
2022-10-05T08:25:04.609Z,3.67
2022-10-05T08:28:18.928Z,3.43
2022-10-05T08:30:55.347Z,3.67
2022-10-05T08:33:24.649Z,3.90
2022-10-05T08:36:09.935Z,3.43
2022-10-05T08:38:37.509Z,3.60
2022-10-05T08:43:23.437Z,3.60
2022-10-05T08:47:48.706Z,3.72
2022-10-05T08:54:56.893Z,3.78
2022-10-05T08:58:24.086Z,3.25
2022-10-05T09:03:39.927Z,3.60
2022-10-05T09:08:30.241Z,3.17
2022-10-05T09:14:00.714Z,3.33
2022-10-05T09:17:41.391Z,3.37
2022-10-05T09:21:55.765Z,3.30
2022-10-05T09:25:03.105Z,2.90
2022-10-05T09:27:53.014Z,3.05
2022-10-05T09:33:54.370Z,3.47
2022-10-05T09:40:23.976Z,2.83
2022-10-05T09:45:21.711Z,3.45
2022-10-05T09:48:38.881Z,3.15
2022-10-05T09:51:55.975Z,2.97
2022-10-05T09:58:55.057Z,3.03
2022-10-05T10:06:37.515Z,2.93
2022-10-05T10:12:18.032Z,2.92
2022-10-05T10:17:00.496Z,3.58
2022-10-05T10:22:43.044Z,3.42
2022-10-05T10:32:39.991Z,3.30
2022-10-05T10:39:13.773Z,2.87
2022-10-05T10:46:12.080Z,2.72
2022-10-05T10:49:14.918Z,3.03
2022-10-05T10:52:28.422Z,2.92
2022-10-05T10:55:44.807Z,3.03
2022-10-05T11:00:38.811Z,3.55
2022-10-05T11:03:54.031Z,3.03
2022-10-05T11:10:08.937Z,3.17
2022-10-05T11:15:59.897Z,3.20
2022-10-05T11:20:27.268Z,3.60
2022-10-05T11:23:55.260Z,3.60
2022-10-05T11:27:37.553Z,3.42
2022-10-05T11:30:47.516Z,3.62
2022-10-05T11:34:19.896Z,3.47
2022-10-05T11:41:33.926Z,3.80
2022-10-05T11:46:04.312Z,3.28
2022-10-05T11:51:45.236Z,3.40
2022-10-05T11:55:16.914Z,3.08
2022-10-05T11:58:57.565Z,3.45
2022-10-05T12:01:49.741Z,2.85
2022-10-05T12:05:24.473Z,2.90
2022-10-05T12:08:55.260Z,3.22
2022-10-05T12:12:56.561Z,3.15
2022-10-05T12:15:43.958Z,3.08
2022-10-05T12:19:49.858Z,3.37
2022-10-05T12:22:36.747Z,2.85
2022-10-05T12:25:35.783Z,2.50
2022-10-05T12:28:11.386Z,3.10
2022-10-05T12:32:00.161Z,3.05
2022-10-05T12:35:48.436Z,2.90
2022-10-05T12:38:52.549Z,3.00
2022-10-05T12:41:50.662Z,2.90
2022-10-05T12:46:49.804Z,2.83
2022-10-05T12:50:20.238Z,2.85
2022-10-05T12:53:47.766Z,3.10
2022-10-05T12:58:19.474Z,2.92
2022-10-05T13:01:18.223Z,3.25
2022-10-05T13:05:48.874Z,3.40
2022-10-05T13:08:49.062Z,3.12
2022-10-05T13:11:35.561Z,3.00
2022-10-05T13:16:03.945Z,3.05
2022-10-05T13:22:18.040Z,3.30
2022-10-05T13:25:54.702Z,3.00
2022-10-05T13:28:41.349Z,2.85
2022-10-05T13:33:50.262Z,3.20
2022-10-05T13:36:58.226Z,3.08
2022-10-05T13:43:12.334Z,3.42
2022-10-05T13:48:02.716Z,3.05
2022-10-05T13:50:54.539Z,3.22
2022-10-05T13:53:44.554Z,3.22
2022-10-05T13:56:30.214Z,3.60
2022-10-05T13:59:40.761Z,3.12
2022-10-05T14:02:22.471Z,4.15
2022-10-05T14:05:02.023Z,3.62
2022-10-05T14:08:30.840Z,3.75
2022-10-05T14:10:57.507Z,3.47
2022-10-05T14:16:25.180Z,3.10
2022-10-05T14:19:14.731Z,3.35
2022-10-05T14:22:21.457Z,3.78
2022-10-05T14:25:30.917Z,3.83
2022-10-05T14:30:23.012Z,3.75
2022-10-05T14:33:07.984Z,3.22
2022-10-05T14:35:56.135Z,3.50
2022-10-05T14:38:51.034Z,4.05
2022-10-05T14:41:26.826Z,3.65
2022-10-05T14:45:13.307Z,3.83
2022-10-05T14:48:08.268Z,3.80
2022-10-05T14:51:02.590Z,3.60
2022-10-05T14:53:55.315Z,3.62
2022-10-05T14:58:29.309Z,3.58
2022-10-05T15:01:34.225Z,3.78
2022-10-05T15:04:59.926Z,3.72
2022-10-05T15:07:39.072Z,3.47
2022-10-05T15:10:41.567Z,3.45
2022-10-05T15:13:26.639Z,3.78
2022-10-05T15:16:32.506Z,3.78
2022-10-05T15:19:36.355Z,3.70
2022-10-05T15:25:02.144Z,3.85
2022-10-05T15:28:01.063Z,4.10
2022-10-05T15:30:27.658Z,3.37
2022-10-05T15:33:50.597Z,3.70
2022-10-05T15:36:42.236Z,3.58
2022-10-05T15:41:23.740Z,4.40
2022-10-05T15:44:15.096Z,4.07
2022-10-05T15:46:57.965Z,3.65
2022-10-05T15:52:58.260Z,4.00
2022-10-05T15:57:03.554Z,3.67
2022-10-05T16:01:50.951Z,3.65
2022-10-05T16:04:38.337Z,3.70
2022-10-05T16:07:42.034Z,4.07
2022-10-05T16:10:20.703Z,4.00
2022-10-05T16:13:48.473Z,4.40
2022-10-05T16:16:36.718Z,4.20
2022-10-05T16:21:24.865Z,4.07
2022-10-05T16:24:52.536Z,4.18
2022-10-05T16:29:52.098Z,4.32
2022-10-05T16:32:37.522Z,5.00
2022-10-05T16:38:05.062Z,4.65
2022-10-05T16:44:13.394Z,4.18
2022-10-05T16:47:08.092Z,4.85
2022-10-05T16:50:37.600Z,5.37
2022-10-05T16:53:39.766Z,5.13
2022-10-05T16:56:14.042Z,5.30
2022-10-05T16:59:15.256Z,5.17
2022-10-05T17:03:26.721Z,5.53
2022-10-05T17:10:41.086Z,5.47
2022-10-05T17:14:57.602Z,5.27
2022-10-05T17:20:16.310Z,5.00
2022-10-05T17:23:03.273Z,5.90
2022-10-05T17:28:41.445Z,5.47
2022-10-05T17:32:35.298Z,5.80
2022-10-05T17:35:51.318Z,8.77
2022-10-05T17:39:13.811Z,10.50
2022-10-05T17:41:40.626Z,10.57
2022-10-05T17:44:29.949Z,10.50
2022-10-05T17:47:03.233Z,10.20
2022-10-05T17:50:16.931Z,9.53
2022-10-05T17:53:30.900Z,9.60
2022-10-05T17:56:04.800Z,10.10
2022-10-05T18:02:13.993Z,10.13
2022-10-05T18:04:48.498Z,9.70
2022-10-05T18:07:21.161Z,9.90
2022-10-05T18:12:10.749Z,10.03
2022-10-05T18:17:09.836Z,9.90
2022-10-05T18:19:38.852Z,8.70
2022-10-05T18:22:50.126Z,9.70
2022-10-05T18:27:31.072Z,9.07
2022-10-05T18:30:17.133Z,9.73
2022-10-05T18:35:19.280Z,9.83
2022-10-05T18:41:04.649Z,10.43
2022-10-05T18:47:28.163Z,8.83
2022-10-05T18:56:39.154Z,9.50
2022-10-05T18:59:38.817Z,8.03
2022-10-05T19:03:03.832Z,7.13
2022-10-05T19:06:16.578Z,6.13
2022-10-05T19:11:29.151Z,5.90
2022-10-05T19:15:45.010Z,6.10
2022-10-05T19:18:52.065Z,5.93
2022-10-05T19:27:05.995Z,6.10
2022-10-05T19:30:14.673Z,6.27
2022-10-05T19:33:17.534Z,7.57
2022-10-05T19:40:20.954Z,7.30
2022-10-05T19:46:00.737Z,8.20
2022-10-05T19:48:45.524Z,6.07
2022-10-05T19:51:26.551Z,6.17
2022-10-05T19:53:55.455Z,5.90
2022-10-05T19:56:30.353Z,6.20
2022-10-05T19:58:58.827Z,5.93
2022-10-05T20:01:30.651Z,5.43
2022-10-05T20:03:57.682Z,5.80
2022-10-05T20:06:26.191Z,5.40
2022-10-05T20:08:59.214Z,5.73
2022-10-05T20:11:27.692Z,5.87
2022-10-05T20:20:03.720Z,6.30
2022-10-05T20:22:45.464Z,6.70
2022-10-05T20:27:01.140Z,6.50
2022-10-05T20:29:50.095Z,5.60
2022-10-05T20:32:17.334Z,6.00
2022-10-05T20:34:47.699Z,5.67
2022-10-05T20:37:17.715Z,5.33
2022-10-05T20:39:44.685Z,5.70
2022-10-05T20:42:11.388Z,5.80
2022-10-05T20:44:38.289Z,5.90
2022-10-05T20:47:08.766Z,5.60
2022-10-05T20:49:37.946Z,5.80
2022-10-05T20:52:06.185Z,6.03
2022-10-05T20:54:32.747Z,5.43
2022-10-05T20:56:59.316Z,6.10
2022-10-05T20:59:25.979Z,6.30
2022-10-05T21:01:52.574Z,5.87
2022-10-05T21:04:23.289Z,6.37
2022-10-05T21:06:50.017Z,5.73
2022-10-05T21:09:18.813Z,6.87
2022-10-05T21:11:52.150Z,6.73
2022-10-05T21:14:18.826Z,5.87
2022-10-05T21:16:45.449Z,6.20
2022-10-05T21:19:14.127Z,5.63
2022-10-05T21:21:43.664Z,5.77
2022-10-05T21:24:12.938Z,5.27
2022-10-05T21:26:41.276Z,5.20
2022-10-05T21:29:12.503Z,5.87
2022-10-05T21:31:40.055Z,5.30
2022-10-05T21:34:07.082Z,5.40
2022-10-05T21:36:34.237Z,5.20
2022-10-05T21:39:01.035Z,5.13
2022-10-05T21:41:27.680Z,5.07
2022-10-05T21:43:54.242Z,5.60
2022-10-05T21:46:25.620Z,4.97
2022-10-05T21:48:53.822Z,5.03
2022-10-05T21:51:24.413Z,5.53
2022-10-05T21:54:02.563Z,5.13
2022-10-05T21:56:35.440Z,4.67
2022-10-05T21:59:05.810Z,5.10
2022-10-05T22:01:35.129Z,5.07
2022-10-05T22:04:06.488Z,5.30
2022-10-05T22:06:34.447Z,5.80
2022-10-05T22:09:02.010Z,5.40
2022-10-05T22:11:28.763Z,5.73
2022-10-05T22:14:01.701Z,5.60
2022-10-05T22:16:32.164Z,5.37
2022-10-05T22:19:02.758Z,5.03
2022-10-05T22:21:30.244Z,5.63
2022-10-05T22:23:56.934Z,4.97
2022-10-05T22:26:24.255Z,4.80
2022-10-05T22:28:54.778Z,4.93
2022-10-05T22:31:21.684Z,4.20
2022-10-05T22:33:48.187Z,4.80
2022-10-05T22:36:15.570Z,4.63
2022-10-05T22:38:42.041Z,4.40
2022-10-05T22:41:13.781Z,4.90
2022-10-05T22:43:40.330Z,4.80
2022-10-05T22:46:13.820Z,4.60
2022-10-05T22:48:40.377Z,4.80
2022-10-05T22:51:08.054Z,4.90
2022-10-05T22:53:35.128Z,5.03
2022-10-05T22:56:11.494Z,4.87
2022-10-05T22:58:38.933Z,5.10
2022-10-05T23:01:09.245Z,6.13
2022-10-05T23:03:36.153Z,4.90
2022-10-05T23:06:16.326Z,5.03
2022-10-05T23:08:44.216Z,5.03
2022-10-05T23:11:18.526Z,4.77
2022-10-05T23:13:45.254Z,4.50
2022-10-05T23:16:16.448Z,4.67
2022-10-05T23:18:44.052Z,4.80
2022-10-05T23:21:11.455Z,4.50
2022-10-05T23:23:41.001Z,4.70
2022-10-05T23:26:10.874Z,4.30
2022-10-05T23:28:46.201Z,3.97
2022-10-05T23:31:19.853Z,4.50
2022-10-05T23:33:46.729Z,4.77
2022-10-05T23:36:20.325Z,4.47
2022-10-05T23:38:47.159Z,4.90
2022-10-05T23:41:15.286Z,4.40
2022-10-05T23:43:42.011Z,4.13
2022-10-05T23:46:10.364Z,4.57
2022-10-05T23:48:39.541Z,4.03
2022-10-05T23:51:09.239Z,4.60
2022-10-05T23:53:36.057Z,4.67
2022-10-05T23:56:03.305Z,4.47
2022-10-05T23:58:30.213Z,4.60
